Time;durP1;ratioP1;P1;durP2;ratioP2;P2;SDS_P1;SDS_P2;PMS_P1;PMS_P2;Temp;Humidity;BMP_temperature;BMP_pressure;BME280_temperature;BME280_humidity;BME280_pressure;Samples;Min_cycle;Max_cycle;Signal;HPM_P1;HPM_P2
2021/05/15 04:01:09;;;;;;;1.20;1.10;;;10.50;99.90;;;;;;5680605;23;20530;-66
2021/05/15 04:03:35;;;;;;;1.33;1.33;;;10.60;99.90;;;;;;5033696;28;20447;-66
2021/05/15 04:06:01;;;;;;;1.17;1.00;;;10.70;99.90;;;;;;5033029;28;21015;-66
2021/05/15 04:08:27;;;;;;;2.20;1.33;;;10.80;99.90;;;;;;5033446;28;20474;-66
2021/05/15 04:10:53;;;;;;;4.70;1.10;;;10.70;99.90;;;;;;5033246;28;20468;-66
2021/05/15 04:13:26;;;;;;;1.60;1.20;;;10.80;99.90;;;;;;5033858;28;20456;-65
2021/05/15 04:15:57;;;;;;;1.53;1.27;;;10.80;99.90;;;;;;5033705;28;20560;-65
2021/05/15 04:18:27;;;;;;;0.80;0.80;;;10.90;99.90;;;;;;5037059;28;20447;-65
2021/05/15 04:20:55;;;;;;;1.20;1.10;;;10.90;99.90;;;;;;5037314;28;20594;-65
2021/05/15 04:23:22;;;;;;;1.00;1.00;;;10.90;99.90;;;;;;5037274;28;20447;-66
2021/05/15 04:25:49;;;;;;;1.63;1.07;;;10.90;99.90;;;;;;5037187;28;20456;-66
2021/05/15 04:28:16;;;;;;;0.90;0.90;;;11.00;99.90;;;;;;5036975;28;20488;-66
2021/05/15 04:30:43;;;;;;;1.17;1.00;;;11.10;99.90;;;;;;5036907;28;20475;-66
2021/05/15 04:33:09;;;;;;;1.27;0.90;;;11.10;99.90;;;;;;5037146;28;20467;-66
2021/05/15 04:35:36;;;;;;;0.80;0.80;;;11.10;99.90;;;;;;5036940;28;20533;-65
2021/05/15 04:38:04;;;;;;;2.43;1.07;;;11.00;99.90;;;;;;5036908;28;20448;-66
2021/05/15 04:40:31;;;;;;;1.70;1.30;;;11.10;99.90;;;;;;5036940;28;20487;-65
2021/05/15 04:42:57;;;;;;;2.93;1.20;;;11.10;99.90;;;;;;5036479;28;20993;-65
2021/05/15 04:45:24;;;;;;;1.53;0.93;;;11.10;99.90;;;;;;5036772;28;20456;-65
2021/05/15 04:47:50;;;;;;;1.07;0.97;;;11.10;99.90;;;;;;5036860;28;20504;-65
2021/05/15 04:50:16;;;;;;;1.30;0.90;;;11.20;99.90;;;;;;5036704;28;20455;-65
2021/05/15 04:52:43;;;;;;;0.83;0.83;;;11.20;99.90;;;;;;5036885;28;20457;-65
2021/05/15 04:55:10;;;;;;;1.70;0.93;;;11.30;99.90;;;;;;5036837;28;20479;-65
2021/05/15 04:57:36;;;;;;;1.40;0.90;;;11.30;99.90;;;;;;5036931;28;20543;-65
2021/05/15 05:00:04;;;;;;;1.03;0.97;;;11.40;99.90;;;;;;5036517;28;20458;-65
2021/05/15 05:02:30;;;;;;;6.00;0.80;;;11.30;99.90;;;;;;5036169;28;20479;-64
2021/05/15 05:04:56;;;;;;;1.30;1.20;;;11.40;99.90;;;;;;5036367;28;20942;-65
2021/05/15 05:07:22;;;;;;;1.43;1.10;;;11.40;99.90;;;;;;5036169;28;20444;-65
2021/05/15 05:09:49;;;;;;;0.90;0.90;;;11.60;99.90;;;;;;5037237;28;20757;-66
2021/05/15 05:12:16;;;;;;;0.80;0.80;;;11.50;99.90;;;;;;5036482;28;20475;-65
2021/05/15 05:14:43;;;;;;;1.50;0.70;;;11.60;99.90;;;;;;5036404;28;20610;-64
2021/05/15 05:17:09;;;;;;;2.73;1.67;;;11.70;99.90;;;;;;5036254;28;20470;-64
2021/05/15 05:19:35;;;;;;;0.90;0.90;;;11.90;99.90;;;;;;5036937;28;20464;-66
2021/05/15 05:22:03;;;;;;;1.40;1.17;;;12.40;99.90;;;;;;5036062;28;20553;-64
2021/05/15 05:24:29;;;;;;;0.90;0.90;;;12.70;99.90;;;;;;5035900;28;20977;-66
2021/05/15 05:26:56;;;;;;;1.00;1.00;;;12.80;99.90;;;;;;5035585;28;20463;-66
2021/05/15 05:29:23;;;;;;;1.40;1.20;;;12.70;99.90;;;;;;5036003;28;20455;-67
2021/05/15 05:31:52;;;;;;;0.90;0.90;;;12.90;99.90;;;;;;5035999;28;20479;-64
2021/05/15 05:34:19;;;;;;;0.80;0.80;;;12.90;99.90;;;;;;5037339;28;20547;-65
2021/05/15 05:36:46;;;;;;;0.87;0.87;;;12.90;99.90;;;;;;5045830;28;20452;-65
2021/05/15 05:39:15;;;;;;;1.20;1.10;;;12.60;99.90;;;;;;5037622;28;20455;-64
2021/05/15 05:41:41;;;;;;;1.10;1.00;;;12.80;99.90;;;;;;5036086;28;20475;-65
2021/05/15 05:44:08;;;;;;;1.23;1.20;;;12.80;99.90;;;;;;5035935;28;20452;-66
2021/05/15 05:46:35;;;;;;;1.00;1.00;;;12.90;99.90;;;;;;5035750;28;20455;-64
2021/05/15 05:49:01;;;;;;;1.00;1.00;;;12.80;99.90;;;;;;5035352;28;20958;-66
2021/05/15 05:51:27;;;;;;;1.20;0.93;;;13.00;99.90;;;;;;5035552;28;20472;-64
2021/05/15 05:53:54;;;;;;;1.23;0.87;;;13.20;99.90;;;;;;5035728;28;20455;-65
2021/05/15 05:56:20;;;;;;;0.80;0.80;;;13.30;99.90;;;;;;5035631;28;20472;-64
2021/05/15 05:58:47;;;;;;;0.90;0.90;;;13.30;99.90;;;;;;5035079;28;20819;-65
2021/05/15 06:01:15;;;;;;;0.97;0.97;;;13.40;99.90;;;;;;5034988;28;20973;-64
2021/05/15 06:03:41;;;;;;;1.17;0.83;;;13.60;99.90;;;;;;5035216;28;20455;-64
2021/05/15 06:06:08;;;;;;;0.90;0.90;;;13.60;99.90;;;;;;5035222;28;20452;-64
2021/05/15 06:08:35;;;;;;;0.63;0.63;;;13.70;99.90;;;;;;5035227;28;20456;-65
2021/05/15 06:11:01;;;;;;;0.70;0.70;;;13.80;99.90;;;;;;5035221;28;20482;-65
2021/05/15 06:13:29;;;;;;;1.03;1.00;;;13.90;99.90;;;;;;5034955;28;20824;-64
2021/05/15 06:15:55;;;;;;;1.50;0.87;;;14.20;99.90;;;;;;5035575;28;20526;-64
2021/05/15 06:18:22;;;;;;;1.03;1.00;;;14.10;99.90;;;;;;5035182;28;20444;-64
2021/05/15 06:20:49;;;;;;;1.87;1.00;;;14.30;99.90;;;;;;5034848;28;20490;-65
2021/05/15 06:23:15;;;;;;;0.90;0.70;;;14.50;99.90;;;;;;5034914;28;20463;-64
2021/05/15 06:25:42;;;;;;;0.97;0.97;;;14.50;99.90;;;;;;5034610;28;20436;-65
2021/05/15 06:28:08;;;;;;;2.43;0.83;;;14.50;99.90;;;;;;5034772;28;20452;-64
2021/05/15 06:30:34;;;;;;;0.97;0.83;;;14.60;99.90;;;;;;5034733;28;20843;-64
2021/05/15 06:33:01;;;;;;;0.90;0.90;;;15.00;99.90;;;;;;5034650;28;20475;-64
2021/05/15 06:35:28;;;;;;;1.03;0.90;;;15.10;99.90;;;;;;5034556;28;20542;-64
2021/05/15 06:37:54;;;;;;;1.43;0.80;;;15.50;99.90;;;;;;5034408;28;20456;-65
2021/05/15 06:40:21;;;;;;;1.00;1.00;;;16.00;99.90;;;;;;5033841;28;20459;-65
2021/05/15 06:42:47;;;;;;;0.67;0.67;;;16.50;99.90;;;;;;5034688;28;20452;-65
2021/05/15 06:45:14;;;;;;;2.93;1.17;;;17.30;99.90;;;;;;5034565;28;20490;-65
2021/05/15 06:47:40;;;;;;;1.17;0.93;;;17.80;99.90;;;;;;5034727;28;20444;-65
2021/05/15 06:50:08;;;;;;;0.83;0.70;;;17.80;99.90;;;;;;5034422;28;20511;-65
2021/05/15 06:52:36;;;;;;;0.60;0.60;;;18.40;99.90;;;;;;5034417;28;20483;-65
2021/05/15 06:55:03;;;;;;;0.70;0.70;;;18.80;99.90;;;;;;5034279;28;20479;-65
2021/05/15 06:57:29;;;;;;;0.77;0.77;;;19.10;99.10;;;;;;5034534;28;20448;-66
2021/05/15 06:59:55;;;;;;;0.70;0.70;;;19.50;97.60;;;;;;5033960;28;20976;-68
2021/05/15 07:02:21;;;;;;;1.23;0.70;;;19.80;96.80;;;;;;5033856;28;20490;-68
2021/05/15 07:04:50;;;;;;;0.80;0.80;;;19.90;97.80;;;;;;5034360;28;20433;-66
2021/05/15 07:07:16;;;;;;;4.27;0.90;;;20.00;95.00;;;;;;5034202;28;20895;-66
2021/05/15 07:09:43;;;;;;;0.70;0.70;;;20.10;94.90;;;;;;5034158;28;20440;-66
2021/05/15 07:12:10;;;;;;;1.03;0.90;;;19.70;94.70;;;;;;5034258;28;20843;-66
2021/05/15 07:14:36;;;;;;;1.40;0.80;;;19.00;95.40;;;;;;5034188;28;20460;-66
2021/05/15 07:17:02;;;;;;;0.70;0.70;;;18.30;97.10;;;;;;5034354;28;20432;-66
2021/05/15 07:19:29;;;;;;;0.70;0.70;;;18.10;98.10;;;;;;5033922;28;20456;-66
2021/05/15 07:21:55;;;;;;;0.77;0.77;;;17.70;99.50;;;;;;5033951;28;20575;-66
2021/05/15 07:24:21;;;;;;;3.00;0.80;;;17.20;99.80;;;;;;5033912;28;20460;-66
2021/05/15 07:26:48;;;;;;;1.07;0.73;;;16.70;99.90;;;;;;5033626;28;20437;-66
2021/05/15 07:29:14;;;;;;;0.83;0.83;;;16.30;99.90;;;;;;5033622;28;20910;-66
2021/05/15 07:31:40;;;;;;;2.30;0.87;;;16.10;99.90;;;;;;5033588;28;20480;-66
2021/05/15 07:34:07;;;;;;;1.37;0.90;;;16.10;99.90;;;;;;5033655;28;20462;-66
2021/05/15 07:36:33;;;;;;;0.90;0.90;;;16.20;99.90;;;;;;5033271;28;21047;-66
2021/05/15 07:38:59;;;;;;;4.47;0.80;;;16.20;99.90;;;;;;5033626;28;20479;-67
2021/05/15 07:41:27;;;;;;;1.00;1.00;;;16.10;99.90;;;;;;5033420;28;20472;-66
2021/05/15 07:43:54;;;;;;;1.23;1.00;;;16.10;99.90;;;;;;5033508;28;20456;-67
2021/05/15 07:46:20;;;;;;;1.20;1.20;;;16.00;99.90;;;;;;5033027;28;20957;-66
2021/05/15 07:48:47;;;;;;;1.10;1.10;;;15.90;99.90;;;;;;5033492;28;20456;-66
2021/05/15 07:51:19;;;;;;;1.70;1.20;;;15.80;99.90;;;;;;5033229;28;20494;-67
2021/05/15 07:53:46;;;;;;;0.70;0.70;;;15.80;99.90;;;;;;5033333;28;20446;-66
2021/05/15 07:56:12;;;;;;;1.07;0.97;;;15.90;99.90;;;;;;5033267;28;20472;-66
2021/05/15 07:58:38;;;;;;;0.90;0.90;;;16.20;99.90;;;;;;5033344;28;20492;-66
2021/05/15 08:01:05;;;;;;;0.87;0.87;;;16.60;99.90;;;;;;5032712;28;20491;-68
2021/05/15 08:03:31;;;;;;;1.00;1.00;;;17.30;99.90;;;;;;5033308;28;20455;-67
2021/05/15 08:05:58;;;;;;;0.97;0.97;;;17.60;99.90;;;;;;5032981;28;20452;-67
2021/05/15 08:08:25;;;;;;;1.30;1.20;;;17.80;99.90;;;;;;5033863;28;20444;-66
2021/05/15 08:10:51;;;;;;;1.00;0.90;;;17.30;99.90;;;;;;5033344;28;20498;-66
2021/05/15 08:13:17;;;;;;;1.10;1.00;;;17.60;99.90;;;;;;5032882;28;20452;-67
2021/05/15 08:15:44;;;;;;;0.93;0.93;;;17.90;99.90;;;;;;5033004;28;20467;-67
2021/05/15 08:18:11;;;;;;;0.90;0.90;;;17.80;99.90;;;;;;5033089;28;20456;-66
2021/05/15 08:20:38;;;;;;;1.03;1.03;;;17.50;99.90;;;;;;5033096;28;20475;-67
2021/05/15 08:23:04;;;;;;;1.27;1.17;;;17.20;99.90;;;;;;5033352;28;20502;-66
2021/05/15 08:25:30;;;;;;;1.63;1.00;;;17.00;99.90;;;;;;5033168;28;20448;-67
2021/05/15 08:27:59;;;;;;;0.70;0.70;;;16.90;99.90;;;;;;5033739;28;20459;-67
2021/05/15 08:30:28;;;;;;;1.53;1.00;;;16.80;99.90;;;;;;5032992;28;20836;-67
2021/05/15 08:32:55;;;;;;;0.80;0.80;;;16.50;99.90;;;;;;5033012;28;20452;-67
2021/05/15 08:35:24;;;;;;;3.73;1.17;;;16.30;99.90;;;;;;5033027;28;20480;-67
2021/05/15 08:37:52;;;;;;;2.57;1.10;;;16.30;99.90;;;;;;5032984;28;20447;-67
2021/05/15 08:40:19;;;;;;;1.83;0.90;;;16.20;99.90;;;;;;5032908;28;20456;-67
2021/05/15 08:42:47;;;;;;;1.00;1.00;;;16.20;99.90;;;;;;5032904;28;20854;-67
2021/05/15 08:45:16;;;;;;;1.10;1.00;;;16.00;99.90;;;;;;5033042;28;20546;-67
2021/05/15 08:47:43;;;;;;;1.03;1.00;;;15.90;99.90;;;;;;5032777;28;20451;-67
2021/05/15 08:50:12;;;;;;;1.50;0.80;;;16.00;99.90;;;;;;5032863;28;20805;-66
2021/05/15 08:52:41;;;;;;;3.07;1.00;;;16.00;99.90;;;;;;5033239;28;20456;-66
2021/05/15 08:55:09;;;;;;;1.13;0.97;;;15.90;99.90;;;;;;5033107;28;20535;-68
2021/05/15 08:57:36;;;;;;;1.00;1.00;;;16.10;99.90;;;;;;5032738;28;20475;-66
2021/05/15 09:00:09;;;;;;;1.20;1.20;;;16.20;99.90;;;;;;5032925;28;20773;-68
2021/05/15 09:02:36;;;;;;;1.57;1.13;;;16.20;99.90;;;;;;5033962;28;20464;-68
2021/05/15 09:05:02;;;;;;;0.77;0.77;;;16.30;99.90;;;;;;5036466;28;20459;-68
2021/05/15 09:07:28;;;;;;;1.40;1.30;;;16.50;99.90;;;;;;5036551;28;20432;-69
2021/05/15 09:09:55;;;;;;;1.10;1.10;;;17.00;99.90;;;;;;5036408;28;20478;-67
2021/05/15 09:12:22;;;;;;;1.20;0.97;;;17.30;99.90;;;;;;5036272;28;20472;-68
2021/05/15 09:14:58;;;;;;;1.17;1.07;;;17.60;99.90;;;;;;5036383;28;20444;-67
2021/05/15 09:17:24;;;;;;;0.77;0.77;;;17.70;99.90;;;;;;5036311;28;20460;-68
2021/05/15 09:19:52;;;;;;;1.00;1.00;;;17.70;99.90;;;;;;5036133;28;21012;-67
2021/05/15 09:22:24;;;;;;;2.13;1.10;;;17.80;99.90;;;;;;5036162;28;20500;-69
2021/05/15 09:24:50;;;;;;;0.87;0.80;;;17.90;99.90;;;;;;5036230;28;20444;-67
2021/05/15 09:27:18;;;;;;;1.10;1.00;;;17.90;99.90;;;;;;5036265;28;20454;-67
2021/05/15 09:29:45;;;;;;;1.10;1.10;;;17.90;99.90;;;;;;5037395;28;20506;-67
2021/05/15 09:32:12;;;;;;;0.70;0.70;;;17.90;99.90;;;;;;5045678;28;20502;-69
2021/05/15 09:34:45;;;;;;;1.10;1.00;;;17.80;99.90;;;;;;5042621;28;20866;-67
2021/05/15 09:37:11;;;;;;;2.87;0.93;;;17.90;99.90;;;;;;5036957;28;20459;-70
2021/05/15 09:39:38;;;;;;;1.13;1.13;;;18.10;99.90;;;;;;5036451;28;20463;-68
2021/05/15 09:42:04;;;;;;;1.40;1.07;;;18.40;99.90;;;;;;5035883;28;20994;-67
2021/05/15 09:44:34;;;;;;;1.17;1.10;;;18.80;99.90;;;;;;5035907;28;20479;-68
2021/05/15 09:47:00;;;;;;;0.80;0.80;;;19.00;99.90;;;;;;5035572;28;20456;-68
2021/05/15 09:49:29;;;;;;;1.33;1.07;;;19.10;98.60;;;;;;5035876;28;20459;-68
2021/05/15 09:51:57;;;;;;;1.53;0.80;;;19.80;97.00;;;;;;5035684;28;20468;-68
2021/05/15 09:54:25;;;;;;;3.13;1.10;;;20.50;95.80;;;;;;5035639;28;20930;-66
2021/05/15 09:56:59;;;;;;;0.97;0.97;;;21.00;92.90;;;;;;5035795;28;20476;-68
2021/05/15 09:59:30;;;;;;;1.20;1.10;;;20.90;91.20;;;;;;5035520;28;20906;-68
2021/05/15 10:01:59;;;;;;;1.00;0.90;;;21.20;90.50;;;;;;5035620;28;20484;-68
2021/05/15 10:04:26;;;;;;;1.30;0.93;;;21.60;90.30;;;;;;5035400;28;20550;-68
2021/05/15 10:06:53;;;;;;;4.03;1.00;;;21.50;90.10;;;;;;5035558;28;20448;-68
2021/05/15 10:09:32;;;;;;;1.10;1.10;;;21.10;87.60;;;;;;5035604;28;20459;-68
2021/05/15 10:12:00;;;;;;;1.20;1.10;;;20.60;90.30;;;;;;5035484;28;20479;-69
2021/05/15 10:14:27;;;;;;;2.17;0.97;;;20.10;91.40;;;;;;5035449;28;20452;-68
2021/05/15 10:16:53;;;;;;;0.93;0.90;;;19.50;91.80;;;;;;5035706;28;20484;-67
2021/05/15 10:19:21;;;;;;;1.00;0.93;;;19.40;92.30;;;;;;5035211;28;20456;-68
2021/05/15 10:21:47;;;;;;;1.10;1.00;;;19.70;91.20;;;;;;5035316;28;20881;-69
2021/05/15 10:24:19;;;;;;;0.83;0.83;;;19.70;92.80;;;;;;5035345;28;20467;-69
2021/05/15 10:26:47;;;;;;;3.20;0.93;;;19.40;91.10;;;;;;5035376;28;20448;-69
2021/05/15 10:29:13;;;;;;;1.00;1.00;;;19.40;91.70;;;;;;5035084;28;20510;-69
2021/05/15 10:31:41;;;;;;;0.73;0.70;;;19.50;91.60;;;;;;5035207;28;20530;-69
2021/05/15 10:34:08;;;;;;;2.87;0.80;;;20.00;91.40;;;;;;5035203;28;20502;-69
2021/05/15 10:36:46;;;;;;;1.23;0.83;;;20.50;87.80;;;;;;5035055;28;21010;-68
2021/05/15 10:39:12;;;;;;;1.17;0.90;;;20.60;88.10;;;;;;5035240;28;20440;-68
2021/05/15 10:41:44;;;;;;;1.70;0.80;;;20.50;89.20;;;;;;5034768;28;20472;-67
2021/05/15 10:44:13;;;;;;;1.30;1.30;;;20.30;89.20;;;;;;5035060;28;20849;-69
2021/05/15 10:46:46;;;;;;;1.37;1.10;;;19.80;87.90;;;;;;5035015;28;20455;-69
2021/05/15 10:49:23;;;;;;;1.20;1.20;;;19.70;94.20;;;;;;5034726;28;20441;-68
2021/05/15 10:51:52;;;;;;;0.93;0.93;;;20.40;91.90;;;;;;5034689;28;20486;-68
2021/05/15 10:54:32;;;;;;;1.17;1.00;;;21.50;92.20;;;;;;5034493;28;20818;-68
2021/05/15 10:57:02;;;;;;;1.53;0.90;;;21.90;84.40;;;;;;5034926;28;20463;-68
2021/05/15 10:59:28;;;;;;;1.10;1.00;;;22.20;88.60;;;;;;5034193;28;20489;-66
2021/05/15 11:01:57;;;;;;;1.90;0.87;;;22.00;87.40;;;;;;5034531;28;20488;-67
2021/05/15 11:04:26;;;;;;;1.33;0.60;;;22.00;85.60;;;;;;5034642;28;20459;-67
2021/05/15 11:07:05;;;;;;;2.77;1.00;;;21.60;82.20;;;;;;5035511;28;20437;-66
2021/05/15 11:09:32;;;;;;;1.10;1.00;;;21.30;86.20;;;;;;5037685;28;20452;-67
2021/05/15 11:12:11;;;;;;;2.63;1.10;;;20.70;83.90;;;;;;5039765;28;20476;-66
2021/05/15 11:14:39;;;;;;;1.30;1.10;;;20.50;83.20;;;;;;5038864;28;20452;-67
2021/05/15 11:17:12;;;;;;;2.10;1.00;;;20.20;83.80;;;;;;5038583;28;20479;-66
2021/05/15 11:19:39;;;;;;;1.83;1.23;;;19.80;84.50;;;;;;5039681;28;20436;-68
2021/05/15 11:22:07;;;;;;;1.00;0.90;;;19.10;87.70;;;;;;5039251;28;20471;-68
2021/05/15 11:24:36;;;;;;;0.90;0.90;;;19.00;92.40;;;;;;5039097;28;20838;-67
2021/05/15 11:27:13;;;;;;;2.10;1.27;;;18.70;93.00;;;;;;5039360;28;20432;-66
2021/05/15 11:29:40;;;;;;;1.10;1.00;;;18.70;95.30;;;;;;5039101;28;20440;-67
2021/05/15 11:32:07;;;;;;;5.27;0.90;;;18.60;93.00;;;;;;5039346;28;20476;-67
2021/05/15 11:34:34;;;;;;;0.90;0.90;;;18.30;92.80;;;;;;5039632;28;20455;-67
2021/05/15 11:37:00;;;;;;;2.07;1.00;;;18.10;91.60;;;;;;5039382;28;20503;-66
2021/05/15 11:39:27;;;;;;;2.87;1.00;;;18.00;91.80;;;;;;5039255;28;20460;-67
2021/05/15 11:42:08;;;;;;;1.03;0.97;;;17.70;91.10;;;;;;5037892;28;20641;-67
2021/05/15 11:44:36;;;;;;;1.47;1.10;;;17.60;92.20;;;;;;5033718;28;20899;-66
2021/05/15 11:47:04;;;;;;;1.30;1.17;;;17.70;92.40;;;;;;5034334;28;20491;-66
2021/05/15 11:49:30;;;;;;;2.43;1.13;;;17.70;94.00;;;;;;5033926;28;20455;-68
2021/05/15 11:51:59;;;;;;;1.03;0.83;;;17.60;94.10;;;;;;5034067;28;20478;-67
2021/05/15 11:54:25;;;;;;;1.17;1.07;;;17.90;94.20;;;;;;5034024;28;20455;-67
2021/05/15 11:56:56;;;;;;;1.40;1.30;;;18.00;91.60;;;;;;5033785;28;20484;-67
2021/05/15 11:59:23;;;;;;;4.17;1.47;;;18.30;91.90;;;;;;5036204;28;20432;-67
2021/05/15 12:01:49;;;;;;;2.33;1.07;;;18.70;92.70;;;;;;5037996;28;20484;-66
2021/05/15 12:04:18;;;;;;;4.37;1.10;;;19.30;90.70;;;;;;5037876;28;20809;-67
2021/05/15 12:06:44;;;;;;;1.27;1.17;;;19.50;84.80;;;;;;5037106;28;20448;-67
2021/05/15 12:09:12;;;;;;;1.30;0.93;;;19.70;84.50;;;;;;5036437;28;20437;-67
2021/05/15 12:11:39;;;;;;;0.90;0.90;;;19.90;82.20;;;;;;5036003;28;20479;-67
2021/05/15 12:14:06;;;;;;;1.73;1.00;;;20.00;78.30;;;;;;5036461;28;20456;-67
2021/05/15 12:16:34;;;;;;;1.23;1.13;;;20.20;81.60;;;;;;5037176;28;20483;-67
2021/05/15 12:19:01;;;;;;;6.90;1.20;;;20.30;79.70;;;;;;5037669;28;20477;-67
2021/05/15 12:21:28;;;;;;;2.50;0.90;;;20.40;82.00;;;;;;5037068;28;20975;-67
2021/05/15 12:24:00;;;;;;;1.37;0.93;;;20.50;80.20;;;;;;5037601;28;20456;-67
2021/05/15 12:26:26;;;;;;;1.80;1.27;;;20.20;77.50;;;;;;5035175;28;20809;-69
2021/05/15 12:28:52;;;;;;;0.80;0.80;;;20.20;79.80;;;;;;5034515;28;20455;-68
2021/05/15 12:31:24;;;;;;;3.53;1.40;;;19.90;79.20;;;;;;5034177;28;20471;-68
2021/05/15 12:33:51;;;;;;;1.90;1.23;;;19.80;80.40;;;;;;5034020;28;20463;-68
2021/05/15 12:36:17;;;;;;;1.93;1.20;;;20.00;88.00;;;;;;5034410;28;20466;-68
2021/05/15 12:38:49;;;;;;;1.10;1.00;;;20.50;89.30;;;;;;5036717;28;20463;-68
2021/05/15 12:41:17;;;;;;;1.23;1.13;;;20.80;84.10;;;;;;5037532;28;20479;-69
2021/05/15 12:43:45;;;;;;;1.37;1.03;;;20.90;88.60;;;;;;5037472;28;20452;-69
2021/05/15 12:46:14;;;;;;;6.70;1.57;;;21.10;84.10;;;;;;5037039;28;20458;-69
2021/05/15 12:48:43;;;;;;;3.20;1.17;;;21.20;82.20;;;;;;5037431;28;20436;-68
2021/05/15 12:51:11;;;;;;;1.90;1.10;;;21.20;83.00;;;;;;5037921;28;20522;-68
2021/05/15 12:53:38;;;;;;;1.57;1.30;;;21.10;80.90;;;;;;5036835;28;20946;-68
2021/05/15 12:56:07;;;;;;;2.13;1.30;;;21.10;83.50;;;;;;5037294;28;20467;-67
2021/05/15 12:58:33;;;;;;;1.57;1.47;;;21.10;82.40;;;;;;5037074;28;20456;-66
2021/05/15 13:01:02;;;;;;;1.03;1.03;;;20.80;78.80;;;;;;5036805;28;20486;-67
2021/05/15 13:03:30;;;;;;;1.90;0.80;;;20.40;77.00;;;;;;5037093;28;20455;-66
2021/05/15 13:05:57;;;;;;;2.60;1.20;;;19.80;76.90;;;;;;5047954;28;20451;-67
2021/05/15 13:08:31;;;;;;;1.67;1.17;;;19.50;78.90;;;;;;5042624;28;21004;-69
2021/05/15 13:11:09;;;;;;;1.53;1.30;;;19.30;81.50;;;;;;5037458;28;20482;-66
2021/05/15 13:13:35;;;;;;;1.77;1.10;;;19.00;81.70;;;;;;5037062;28;20515;-66
2021/05/15 13:16:03;;;;;;;1.10;1.00;;;19.00;83.10;;;;;;5036982;28;20486;-68
2021/05/15 13:18:29;;;;;;;1.93;1.20;;;18.90;84.10;;;;;;5036444;28;20467;-67
2021/05/15 13:20:56;;;;;;;1.93;1.10;;;18.90;83.10;;;;;;5035803;28;20996;-67
2021/05/15 13:23:23;;;;;;;1.63;1.10;;;18.70;83.40;;;;;;5035933;28;20459;-66
2021/05/15 13:25:49;;;;;;;1.63;1.00;;;18.70;86.00;;;;;;5035800;28;20440;-66
2021/05/15 13:28:15;;;;;;;2.40;1.40;;;18.70;90.20;;;;;;5035857;28;20802;-66
2021/05/15 13:30:43;;;;;;;2.67;1.30;;;18.70;91.70;;;;;;5035576;28;20479;-65
2021/05/15 13:33:10;;;;;;;2.07;1.70;;;18.60;92.10;;;;;;5035750;28;20452;-65
2021/05/15 13:35:37;;;;;;;2.00;1.27;;;18.80;94.10;;;;;;5035774;28;20464;-67
2021/05/15 13:38:04;;;;;;;1.10;1.00;;;18.70;93.20;;;;;;5035781;28;20463;-67
2021/05/15 13:40:31;;;;;;;1.60;1.10;;;18.70;91.20;;;;;;5035814;28;20511;-67
2021/05/15 13:42:57;;;;;;;2.60;1.40;;;18.50;92.60;;;;;;5035697;28;20448;-67
2021/05/15 13:45:23;;;;;;;5.50;1.33;;;18.40;93.40;;;;;;5035670;28;20452;-67
2021/05/15 13:47:51;;;;;;;3.17;1.30;;;18.40;93.40;;;;;;5035199;28;20459;-67
2021/05/15 13:50:17;;;;;;;1.20;1.20;;;18.30;93.10;;;;;;5035506;28;20862;-67
2021/05/15 13:52:43;;;;;;;2.50;2.00;;;18.30;94.10;;;;;;5035228;28;20943;-69
2021/05/15 13:55:11;;;;;;;1.70;1.60;;;18.30;95.10;;;;;;5035433;28;20479;-68
2021/05/15 13:57:38;;;;;;;3.37;2.00;;;18.40;93.70;;;;;;5035546;28;20456;-69
2021/05/15 14:00:06;;;;;;;2.93;1.60;;;18.50;92.50;;;;;;5035511;28;20479;-68
2021/05/15 14:02:32;;;;;;;1.80;1.40;;;18.60;94.50;;;;;;5034882;28;20510;-68
2021/05/15 14:04:58;;;;;;;3.33;1.30;;;18.60;91.50;;;;;;5035494;28;20529;-68
2021/05/15 14:07:24;;;;;;;1.07;1.07;;;18.70;91.10;;;;;;5036171;28;20459;-69
2021/05/15 14:09:51;;;;;;;1.27;1.17;;;18.60;91.90;;;;;;5035249;28;20456;-68
2021/05/15 14:12:18;;;;;;;2.00;1.20;;;18.60;92.00;;;;;;5034729;28;21009;-67
2021/05/15 14:14:45;;;;;;;3.63;1.43;;;18.60;92.90;;;;;;5035078;28;20828;-67
2021/05/15 14:17:11;;;;;;;1.30;1.07;;;18.60;89.30;;;;;;5034887;28;20671;-69
2021/05/15 14:19:37;;;;;;;2.53;1.10;;;18.70;90.10;;;;;;5034896;28;20818;-69
2021/05/15 14:22:03;;;;;;;1.63;1.17;;;18.60;90.10;;;;;;5035051;28;20879;-67
2021/05/15 14:24:29;;;;;;;1.77;1.30;;;18.60;88.60;;;;;;5034820;28;20475;-69
2021/05/15 14:26:56;;;;;;;3.53;1.77;;;18.50;87.70;;;;;;5034833;28;20474;-69
2021/05/15 14:29:23;;;;;;;2.80;1.50;;;18.40;90.50;;;;;;5034851;28;20455;-69
2021/05/15 14:31:49;;;;;;;1.23;1.20;;;18.70;92.30;;;;;;5034458;28;20467;-69
2021/05/15 14:34:15;;;;;;;1.43;1.13;;;18.90;92.00;;;;;;5034662;28;20460;-69
2021/05/15 14:36:41;;;;;;;3.10;1.20;;;18.90;86.90;;;;;;5034472;28;20875;-69
2021/05/15 14:39:08;;;;;;;2.40;1.33;;;18.90;88.50;;;;;;5034802;28;20456;-69
2021/05/15 14:41:34;;;;;;;2.77;1.70;;;18.70;86.90;;;;;;5034455;28;20475;-68
2021/05/15 14:44:00;;;;;;;1.17;1.13;;;18.70;87.20;;;;;;5034263;28;20946;-69
2021/05/15 14:46:27;;;;;;;3.40;1.53;;;18.60;87.50;;;;;;5034301;28;20455;-67
2021/05/15 14:48:53;;;;;;;1.83;1.30;;;18.30;86.90;;;;;;5034397;28;20452;-68
2021/05/15 14:51:20;;;;;;;1.80;1.57;;;18.10;85.80;;;;;;5034111;28;20480;-67
2021/05/15 14:53:46;;;;;;;2.10;1.20;;;18.10;87.80;;;;;;5034601;28;20535;-69
2021/05/15 14:56:16;;;;;;;0.97;0.97;;;18.10;90.20;;;;;;5034185;28;20869;-69
2021/05/15 14:58:42;;;;;;;1.10;1.10;;;18.10;90.20;;;;;;5033747;28;20956;-69
2021/05/15 15:01:10;;;;;;;2.30;2.10;;;17.70;90.20;;;;;;5033171;28;20487;-68
2021/05/15 15:03:37;;;;;;;2.10;1.90;;;17.40;86.70;;;;;;5033829;28;20812;-69
2021/05/15 15:06:04;;;;;;;1.07;0.90;;;17.30;88.30;;;;;;5034122;28;20525;-69
2021/05/15 15:08:30;;;;;;;1.00;0.90;;;17.00;87.80;;;;;;5034022;28;20459;-69
2021/05/15 15:10:57;;;;;;;1.60;1.50;;;16.90;89.00;;;;;;5033814;28;20479;-69
2021/05/15 15:13:23;;;;;;;2.80;1.40;;;16.80;89.30;;;;;;5034299;28;20452;-69
2021/05/15 15:15:49;;;;;;;2.53;2.33;;;16.70;89.50;;;;;;5033905;28;20476;-69
2021/05/15 15:18:16;;;;;;;3.70;3.10;;;16.60;90.20;;;;;;5033787;28;20478;-69
2021/05/15 15:20:43;;;;;;;2.83;1.47;;;16.60;90.10;;;;;;5033706;28;20475;-69
2021/05/15 15:23:09;;;;;;;2.00;1.10;;;16.50;90.50;;;;;;5033962;28;20466;-69
2021/05/15 15:25:36;;;;;;;1.60;1.50;;;16.40;90.70;;;;;;5033582;28;20452;-69
2021/05/15 15:28:03;;;;;;;1.40;1.30;;;16.40;91.20;;;;;;5033782;28;20456;-69
2021/05/15 15:30:30;;;;;;;1.40;1.17;;;16.30;91.40;;;;;;5033847;28;20456;-69
2021/05/15 15:32:56;;;;;;;1.80;1.70;;;16.30;91.80;;;;;;5033894;28;20837;-69
2021/05/15 15:35:23;;;;;;;3.60;1.70;;;16.30;91.90;;;;;;5033551;28;20456;-69
2021/05/15 15:37:51;;;;;;;1.40;1.30;;;16.30;92.10;;;;;;5033281;28;20460;-69
2021/05/15 15:40:20;;;;;;;3.33;1.60;;;16.30;92.20;;;;;;5033613;28;20467;-69
2021/05/15 15:42:46;;;;;;;2.30;1.40;;;16.40;92.70;;;;;;5033647;28;20459;-69
2021/05/15 15:45:14;;;;;;;3.93;1.50;;;16.40;92.50;;;;;;5033419;28;20478;-69
2021/05/15 15:47:41;;;;;;;2.20;1.87;;;16.50;93.90;;;;;;5033207;28;20448;-69
2021/05/15 15:50:10;;;;;;;1.90;1.60;;;16.50;93.10;;;;;;5033412;28;20460;-69
2021/05/15 15:52:36;;;;;;;1.33;1.27;;;16.50;93.50;;;;;;5033372;28;20467;-69
2021/05/15 15:55:05;;;;;;;2.47;1.00;;;16.50;93.60;;;;;;5033012;28;20948;-69
2021/05/15 15:57:31;;;;;;;1.63;1.43;;;16.40;92.80;;;;;;5033804;28;20479;-69
2021/05/15 15:59:57;;;;;;;3.33;1.13;;;16.30;93.50;;;;;;5033745;28;20443;-69
2021/05/15 16:02:24;;;;;;;5.00;2.10;;;16.10;94.40;;;;;;5034279;28;20479;-68
2021/05/15 16:04:50;;;;;;;1.87;1.67;;;15.90;96.50;;;;;;5033842;28;20447;-68
2021/05/15 16:07:16;;;;;;;1.70;1.30;;;15.70;98.10;;;;;;5033457;28;20455;-69
2021/05/15 16:09:42;;;;;;;3.80;1.20;;;15.50;99.80;;;;;;5033493;28;20478;-69
2021/05/15 16:12:10;;;;;;;1.90;1.40;;;15.40;99.90;;;;;;5036082;28;20468;-67
2021/05/15 16:14:37;;;;;;;1.40;1.20;;;15.30;99.90;;;;;;5037836;28;20447;-71
2021/05/15 16:17:04;;;;;;;2.00;1.67;;;15.20;99.90;;;;;;5037434;28;20476;-69
2021/05/15 16:19:30;;;;;;;4.30;3.90;;;15.20;99.90;;;;;;5037467;28;20456;-69
2021/05/15 16:21:57;;;;;;;1.33;1.23;;;15.10;99.90;;;;;;5037392;28;20483;-69
2021/05/15 16:24:23;;;;;;;1.53;1.43;;;15.00;99.90;;;;;;5037617;28;20455;-69
2021/05/15 16:26:49;;;;;;;2.67;1.40;;;15.00;99.90;;;;;;5037627;28;20459;-69
2021/05/15 16:29:17;;;;;;;2.23;1.60;;;15.00;99.90;;;;;;5038280;28;20460;-69
2021/05/15 16:31:44;;;;;;;2.80;1.40;;;14.80;99.90;;;;;;5042189;28;20472;-68
2021/05/15 16:34:10;;;;;;;3.40;1.77;;;14.70;99.90;;;;;;5042439;28;20463;-69
2021/05/15 16:36:44;;;;;;;2.37;1.40;;;14.60;99.90;;;;;;5041756;28;20472;-68
2021/05/15 16:39:10;;;;;;;1.70;1.60;;;14.50;99.90;;;;;;5041800;28;20432;-69
2021/05/15 16:41:36;;;;;;;1.70;1.60;;;14.50;99.90;;;;;;5037050;28;21013;-68
2021/05/15 16:44:03;;;;;;;9.70;8.67;;;14.50;99.90;;;;;;5037204;28;20456;-69
2021/05/15 16:46:31;;;;;;;1.97;1.83;;;14.40;99.90;;;;;;5037051;28;20448;-69
2021/05/15 16:48:57;;;;;;;5.03;1.50;;;14.40;99.90;;;;;;5037033;28;20505;-68